Time;durP1;ratioP1;P1;durP2;ratioP2;P2;SDS_P1;SDS_P2;PMS_P1;PMS_P2;Temp;Humidity;BMP_temperature;BMP_pressure;BME280_temperature;BME280_humidity;BME280_pressure;Samples;Min_cycle;Max_cycle;Signal;HPM_P1;HPM_P2
2023/03/31 00:00:52;;;;;;;4.32;2.80;;;6.20;99.90;;;;;;4989735;28;20039;-79
2023/03/31 00:03:20;;;;;;;4.03;2.28;;;6.20;99.90;;;;;;4987055;28;20038;-79
2023/03/31 00:05:47;;;;;;;4.85;2.70;;;6.30;99.90;;;;;;4988787;28;20038;-80
2023/03/31 00:08:13;;;;;;;4.35;2.92;;;6.20;99.90;;;;;;4983449;28;20455;-79
2023/03/31 00:10:44;;;;;;;3.28;2.58;;;6.20;99.90;;;;;;4990086;28;20026;-80
2023/03/31 00:13:10;;;;;;;4.78;2.47;;;6.30;99.90;;;;;;4989249;28;20054;-81
2023/03/31 00:15:36;;;;;;;3.60;2.10;;;6.20;99.90;;;;;;4992774;28;20047;-80
2023/03/31 00:18:02;;;;;;;3.42;2.40;;;6.20;99.90;;;;;;4990942;28;20034;-79
2023/03/31 00:20:27;;;;;;;3.20;2.42;;;6.20;99.90;;;;;;4988331;28;20038;-79
2023/03/31 00:22:53;;;;;;;4.07;2.58;;;6.20;99.90;;;;;;4984809;28;20063;-79
2023/03/31 00:25:19;;;;;;;2.25;2.00;;;6.20;99.90;;;;;;4988678;28;20034;-80
2023/03/31 00:27:49;;;;;;;2.05;1.70;;;6.20;99.90;;;;;;4983604;28;20081;-79
2023/03/31 00:30:15;;;;;;;3.90;2.10;;;6.20;99.90;;;;;;4984496;28;20030;-79
2023/03/31 00:32:41;;;;;;;4.53;2.15;;;6.20;99.90;;;;;;4986520;28;20031;-80
2023/03/31 00:35:07;;;;;;;5.55;2.17;;;6.20;99.90;;;;;;4999378;28;20093;-79
2023/03/31 00:37:33;;;;;;;7.13;2.35;;;6.20;99.90;;;;;;4988124;28;20018;-79
2023/03/31 00:39:59;;;;;;;4.32;2.75;;;6.10;99.90;;;;;;4975608;28;20053;-79
2023/03/31 00:42:25;;;;;;;6.45;2.38;;;6.10;99.90;;;;;;4986247;28;20098;-80
2023/03/31 00:45:13;;;;;;;7.72;2.60;;;6.10;99.90;;;;;;4996307;28;20030;-79
2023/03/31 00:47:41;;;;;;;4.47;2.13;;;6.00;99.90;;;;;;4985671;28;20041;-80
2023/03/31 00:50:34;;;;;;;3.33;2.03;;;5.90;99.90;;;;;;4981869;28;20030;-80
2023/03/31 00:53:11;;;;;;;3.40;2.10;;;6.00;99.90;;;;;;4983422;28;20121;-80
2023/03/31 00:55:43;;;;;;;3.03;2.50;;;5.90;99.90;;;;;;4968060;28;20032;-80
2023/03/31 00:58:13;;;;;;;2.20;2.00;;;5.90;99.90;;;;;;4987716;28;20038;-79
2023/03/31 01:00:40;;;;;;;2.15;1.95;;;5.80;99.90;;;;;;4987215;28;20027;-78
2023/03/31 01:03:08;;;;;;;2.10;1.90;;;5.80;99.90;;;;;;4991009;28;20049;-78
2023/03/31 01:05:38;;;;;;;;;;;5.80;99.90;;;;;;4990694;28;20031;-78
2023/03/31 01:08:04;;;;;;;5.85;2.30;;;5.80;99.90;;;;;;4990250;28;19910;-78
2023/03/31 01:10:37;;;;;;;2.88;1.95;;;5.80;99.90;;;;;;4982158;28;20035;-78
2023/03/31 01:13:03;;;;;;;2.00;1.80;;;5.50;99.90;;;;;;4986784;28;20038;-78
2023/03/31 01:15:29;;;;;;;4.32;2.78;;;5.50;99.90;;;;;;4988025;28;20113;-78
2023/03/31 01:17:56;;;;;;;2.85;2.40;;;5.50;99.90;;;;;;4986143;28;20050;-78
2023/03/31 01:20:30;;;;;;;3.08;1.70;;;5.50;99.90;;;;;;4988850;28;20028;-77
2023/03/31 01:23:18;;;;;;;2.22;1.98;;;5.40;99.90;;;;;;4985389;28;20054;-78
2023/03/31 01:25:52;;;;;;;2.33;2.13;;;5.40;99.90;;;;;;4982134;28;20058;-78
2023/03/31 01:28:51;;;;;;;1.90;1.77;;;5.40;99.90;;;;;;4989744;28;20041;-78
2023/03/31 01:31:35;;;;;;;;;;;5.50;99.90;;;;;;4966597;28;20038;-78
2023/03/31 01:34:27;;;;;;;3.30;2.03;;;5.50;99.90;;;;;;4996032;28;19910;-77
2023/03/31 01:37:37;;;;;;;1.50;1.40;;;5.20;99.90;;;;;;4985248;28;20034;-78
2023/03/31 01:40:09;;;;;;;2.00;1.90;;;5.10;99.90;;;;;;4973285;28;20078;-78
2023/03/31 01:42:51;;;;;;;2.15;1.83;;;5.00;99.90;;;;;;4988217;28;20039;-78
2023/03/31 01:45:34;;;;;;;2.58;2.22;;;5.10;99.90;;;;;;4985553;28;20026;-78
2023/03/31 01:48:35;;;;;;;2.60;2.40;;;5.10;99.90;;;;;;4991016;28;20030;-78
2023/03/31 01:51:46;;;;;;;5.45;2.90;;;5.10;99.90;;;;;;4980850;28;20054;-79
2023/03/31 01:54:24;;;;;;;3.03;2.50;;;5.20;99.90;;;;;;4961297;29;20040;-78
2023/03/31 01:57:01;;;;;;;3.35;2.85;;;5.30;99.90;;;;;;4945833;29;20035;-78
2023/03/31 01:59:33;;;;;;;1.50;1.40;;;5.30;99.90;;;;;;4980682;28;20062;-78
2023/03/31 02:02:12;;;;;;;1.80;1.70;;;5.30;99.90;;;;;;4997603;28;20130;-78
2023/03/31 02:04:55;;;;;;;2.13;1.92;;;5.20;99.90;;;;;;5000388;28;20042;-78
2023/03/31 02:07:27;;;;;;;3.47;1.98;;;5.30;99.90;;;;;;4996249;28;20037;-78
2023/03/31 02:09:58;;;;;;;4.10;2.95;;;5.30;99.90;;;;;;4992076;28;20015;-77
2023/03/31 02:12:26;;;;;;;3.22;2.90;;;5.30;99.90;;;;;;4993047;28;20042;-78
2023/03/31 02:14:55;;;;;;;4.22;2.80;;;5.40;99.90;;;;;;4994664;28;20031;-78
2023/03/31 02:17:31;;;;;;;4.90;3.17;;;5.40;99.90;;;;;;4992543;28;20022;-78
2023/03/31 02:20:05;;;;;;;4.80;3.05;;;5.50;99.90;;;;;;4990946;28;20040;-78
2023/03/31 02:22:35;;;;;;;8.48;3.65;;;5.60;99.90;;;;;;5005086;28;20039;-78
2023/03/31 02:25:05;;;;;;;5.88;3.10;;;5.60;99.90;;;;;;4990384;28;20114;-78
2023/03/31 02:27:36;;;;;;;3.88;2.90;;;5.70;99.90;;;;;;4995487;28;20031;-79
2023/03/31 02:30:03;;;;;;;2.80;2.40;;;5.70;99.90;;;;;;4991837;28;20035;-78
2023/03/31 02:32:37;;;;;;;4.60;2.58;;;5.70;99.90;;;;;;5005186;28;20056;-77
2023/03/31 02:35:05;;;;;;;2.58;2.38;;;5.60;99.90;;;;;;4997560;28;20050;-77
2023/03/31 02:37:31;;;;;;;3.53;2.47;;;5.60;99.90;;;;;;4990215;28;20051;-77
2023/03/31 02:40:01;;;;;;;42.08;27.65;;;5.50;99.90;;;;;;4974236;29;20039;-77
2023/03/31 02:42:27;;;;;;;18.50;10.65;;;5.40;99.90;;;;;;4996885;28;20034;-77
2023/03/31 02:44:53;;;;;;;7.68;5.35;;;5.40;99.90;;;;;;4997088;28;20038;-77
2023/03/31 02:47:20;;;;;;;5.55;3.90;;;5.60;99.90;;;;;;4975134;28;20035;-76
2023/03/31 02:49:58;;;;;;;4.78;4.20;;;5.90;99.90;;;;;;5001699;28;20039;-76
2023/03/31 02:52:35;;;;;;;5.83;4.10;;;6.00;99.90;;;;;;4984136;28;20031;-76
2023/03/31 02:55:21;;;;;;;8.27;6.20;;;6.10;99.90;;;;;;4986680;28;20038;-75
2023/03/31 02:58:03;;;;;;;10.82;6.28;;;6.20;99.90;;;;;;4986720;28;20031;-75
2023/03/31 03:00:41;;;;;;;8.98;5.25;;;6.40;99.90;;;;;;4984562;28;20042;-76
2023/03/31 03:03:27;;;;;;;8.68;5.03;;;6.50;99.90;;;;;;4983373;28;20042;-77
2023/03/31 03:06:15;;;;;;;10.00;4.82;;;6.70;99.90;;;;;;4984368;28;20066;-76
2023/03/31 03:08:41;;;;;;;6.38;4.65;;;6.80;99.90;;;;;;4990061;28;20082;-76
2023/03/31 03:11:24;;;;;;;15.02;5.40;;;6.90;99.90;;;;;;4994697;28;20026;-76
2023/03/31 03:14:05;;;;;;;6.80;4.30;;;6.90;99.90;;;;;;4987382;28;20047;-77
2023/03/31 03:16:44;;;;;;;9.07;4.93;;;7.00;99.90;;;;;;4981143;28;20031;-76
2023/03/31 03:19:16;;;;;;;9.80;5.15;;;7.10;99.90;;;;;;4987502;28;20435;-75
2023/03/31 03:21:44;;;;;;;8.73;5.32;;;7.20;99.90;;;;;;4985473;28;20058;-74
2023/03/31 03:24:10;;;;;;;9.88;5.68;;;7.20;99.90;;;;;;4986483;28;20506;-75
2023/03/31 03:26:35;;;;;;;6.20;4.50;;;7.30;99.90;;;;;;4981935;28;20035;-75
2023/03/31 03:29:02;;;;;;;9.30;5.28;;;7.30;99.90;;;;;;5008323;28;20061;-75
2023/03/31 03:31:29;;;;;;;7.78;4.55;;;7.30;99.90;;;;;;4987921;28;20102;-76
2023/03/31 03:33:55;;;;;;;6.75;4.60;;;7.40;99.90;;;;;;4987183;28;20035;-76
2023/03/31 03:36:22;;;;;;;12.35;5.30;;;7.40;99.90;;;;;;4977313;28;20037;-75
2023/03/31 03:38:48;;;;;;;32.42;13.00;;;7.50;99.90;;;;;;4991530;28;20023;-76
2023/03/31 03:41:13;;;;;;;16.60;6.32;;;7.50;99.90;;;;;;4989464;28;20049;-75
2023/03/31 03:43:39;;;;;;;12.30;6.13;;;7.50;99.90;;;;;;5002578;28;20126;-75
2023/03/31 03:46:04;;;;;;;36.25;14.70;;;7.60;99.90;;;;;;4987073;28;20026;-75
2023/03/31 03:48:30;;;;;;;18.23;9.43;;;7.60;99.90;;;;;;4982876;28;20042;-75
2023/03/31 03:50:58;;;;;;;16.30;6.95;;;7.70;99.90;;;;;;4986463;28;20035;-76
2023/03/31 03:53:24;;;;;;;8.32;5.60;;;7.70;99.90;;;;;;4983229;28;20553;-76
2023/03/31 03:55:50;;;;;;;11.23;5.93;;;7.60;99.90;;;;;;4983863;28;20046;-78
2023/03/31 03:58:17;;;;;;;9.73;5.38;;;7.60;99.90;;;;;;4983103;28;20031;-76
2023/03/31 04:00:44;;;;;;;7.57;4.43;;;7.70;99.90;;;;;;4986755;28;20043;-75
2023/03/31 04:03:10;;;;;;;8.45;4.75;;;7.80;99.90;;;;;;4987134;28;20431;-75
2023/03/31 04:05:35;;;;;;;6.47;4.43;;;7.80;99.90;;;;;;4985499;28;20098;-76
2023/03/31 04:08:01;;;;;;;6.53;4.10;;;7.80;99.90;;;;;;4986754;28;20031;-75
2023/03/31 04:10:27;;;;;;;6.13;4.68;;;7.80;99.90;;;;;;4992847;28;20066;-75
2023/03/31 04:12:53;;;;;;;9.27;4.18;;;7.80;99.90;;;;;;4991577;28;20031;-75
2023/03/31 04:15:18;;;;;;;9.57;4.38;;;7.80;99.90;;;;;;4989484;28;20046;-76
2023/03/31 04:17:49;;;;;;;7.65;3.67;;;7.80;99.90;;;;;;4988762;28;20715;-77
2023/03/31 04:20:15;;;;;;;5.55;3.78;;;7.80;99.90;;;;;;4991561;28;20030;-75
2023/03/31 04:22:41;;;;;;;5.50;3.70;;;7.90;99.90;;;;;;4996618;28;20061;-75
2023/03/31 04:25:18;;;;;;;5.47;3.58;;;8.00;99.90;;;;;;4985660;28;20015;-75
2023/03/31 04:27:49;;;;;;;8.05;4.25;;;8.00;99.90;;;;;;4990247;28;20031;-75
2023/03/31 04:30:21;;;;;;;10.23;4.28;;;8.00;99.90;;;;;;4986141;28;20042;-75
2023/03/31 04:32:52;;;;;;;6.65;4.18;;;8.00;99.90;;;;;;4988058;28;20051;-75
2023/03/31 04:35:19;;;;;;;7.85;4.03;;;8.10;99.90;;;;;;4989445;28;20018;-75
2023/03/31 04:37:49;;;;;;;10.02;5.03;;;8.10;99.90;;;;;;4995960;28;20035;-75
2023/03/31 04:40:16;;;;;;;7.70;3.92;;;8.10;99.90;;;;;;4990612;28;20019;-76
2023/03/31 04:42:44;;;;;;;5.75;4.47;;;8.10;99.90;;;;;;4994661;28;20035;-76
2023/03/31 04:45:11;;;;;;;8.85;4.65;;;8.10;99.90;;;;;;4986119;28;20062;-76
2023/03/31 04:47:37;;;;;;;8.30;3.75;;;8.10;99.90;;;;;;4989531;28;20052;-76
2023/03/31 04:50:03;;;;;;;8.85;4.25;;;8.10;99.90;;;;;;4990385;28;20030;-76
2023/03/31 04:52:29;;;;;;;5.78;4.07;;;8.10;99.90;;;;;;4991108;28;20026;-75
2023/03/31 04:54:54;;;;;;;8.95;4.97;;;8.10;99.90;;;;;;4991869;28;20066;-75
2023/03/31 04:57:20;;;;;;;9.73;4.30;;;8.20;99.90;;;;;;4992463;28;20037;-76
2023/03/31 04:59:46;;;;;;;7.72;4.53;;;8.10;99.90;;;;;;4991020;28;20050;-76
2023/03/31 05:02:12;;;;;;;7.15;4.90;;;8.20;99.90;;;;;;4993582;28;20034;-76
2023/03/31 05:04:38;;;;;;;6.88;4.47;;;8.20;99.90;;;;;;4993356;28;20042;-77
2023/03/31 05:07:05;;;;;;;7.85;4.28;;;8.20;99.90;;;;;;4991540;28;20031;-76
2023/03/31 05:09:31;;;;;;;6.55;4.20;;;8.20;99.90;;;;;;4991326;28;20031;-76
2023/03/31 05:11:56;;;;;;;8.00;4.38;;;8.20;99.90;;;;;;4988775;28;20057;-76
2023/03/31 05:14:23;;;;;;;8.00;5.20;;;8.20;99.90;;;;;;4990638;28;20247;-76
2023/03/31 05:16:49;;;;;;;8.38;4.55;;;8.30;99.90;;;;;;4993046;28;20019;-76
2023/03/31 05:19:17;;;;;;;6.25;4.80;;;8.30;99.90;;;;;;4989217;28;20037;-76
2023/03/31 05:21:43;;;;;;;6.63;4.73;;;8.30;99.90;;;;;;4986602;28;20035;-76
2023/03/31 05:24:08;;;;;;;3.00;2.53;;;8.30;99.90;;;;;;4991693;28;20305;-76
2023/03/31 05:26:34;;;;;;;9.63;5.00;;;8.30;99.90;;;;;;4991982;28;20027;-77
2023/03/31 05:29:00;;;;;;;7.72;4.80;;;8.40;99.90;;;;;;4993894;28;20027;-75
2023/03/31 05:31:26;;;;;;;7.03;4.90;;;8.30;99.90;;;;;;4993623;28;20034;-75
2023/03/31 05:33:51;;;;;;;8.48;4.95;;;8.40;99.90;;;;;;4994269;28;20060;-75
2023/03/31 05:36:17;;;;;;;11.07;4.78;;;8.40;99.90;;;;;;4986385;28;20118;-76
2023/03/31 05:38:43;;;;;;;7.25;5.38;;;8.40;99.90;;;;;;4985859;28;20042;-78
2023/03/31 05:41:09;;;;;;;6.15;4.68;;;8.40;99.90;;;;;;4987130;28;20034;-76
2023/03/31 05:43:36;;;;;;;10.27;4.72;;;8.40;99.90;;;;;;4988100;28;20042;-75
2023/03/31 05:46:02;;;;;;;8.07;5.03;;;8.50;99.90;;;;;;4988155;28;20035;-76
2023/03/31 05:48:28;;;;;;;13.48;5.25;;;8.60;99.90;;;;;;4993369;28;20022;-75
2023/03/31 05:50:58;;;;;;;8.30;4.90;;;8.60;99.90;;;;;;5021636;28;20043;-76
2023/03/31 05:53:25;;;;;;;5.97;4.57;;;8.60;99.90;;;;;;4990557;28;20130;-77
2023/03/31 05:56:00;;;;;;;5.72;4.90;;;8.60;99.90;;;;;;4986772;28;20407;-76
2023/03/31 05:58:26;;;;;;;9.50;5.03;;;8.70;99.90;;;;;;4997751;28;20031;-76
2023/03/31 06:01:07;;;;;;;7.95;4.75;;;8.70;99.90;;;;;;4992433;28;20039;-76
2023/03/31 06:03:35;;;;;;;7.75;5.10;;;8.70;99.90;;;;;;4990160;28;20137;-76
2023/03/31 06:06:01;;;;;;;8.40;4.32;;;8.70;99.90;;;;;;4987469;28;20081;-76
2023/03/31 06:08:30;;;;;;;9.05;5.70;;;8.80;99.90;;;;;;4977286;28;20034;-76
2023/03/31 06:10:56;;;;;;;8.63;5.05;;;8.80;99.90;;;;;;4992458;28;20065;-76
2023/03/31 06:13:22;;;;;;;8.68;5.43;;;8.80;99.90;;;;;;4990396;28;20035;-76
2023/03/31 06:15:59;;;;;;;9.50;4.55;;;8.80;99.90;;;;;;4986280;28;20035;-76
2023/03/31 06:18:27;;;;;;;9.13;4.65;;;8.80;99.90;;;;;;4991584;28;20035;-76
2023/03/31 06:20:56;;;;;;;7.30;4.53;;;8.80;99.90;;;;;;4985111;28;20042;-76
2023/03/31 06:23:23;;;;;;;9.10;4.97;;;8.80;99.90;;;;;;4996708;28;20054;-76
2023/03/31 06:25:49;;;;;;;7.10;4.82;;;8.80;99.90;;;;;;4994404;28;20454;-76
2023/03/31 06:28:14;;;;;;;7.05;4.60;;;8.80;99.90;;;;;;4992680;28;20030;-75
2023/03/31 06:30:40;;;;;;;8.10;5.60;;;8.80;99.90;;;;;;4988139;28;20055;-75
2023/03/31 06:33:06;;;;;;;5.80;4.03;;;8.80;99.90;;;;;;4976106;28;20044;-75
2023/03/31 06:35:32;;;;;;;7.43;4.97;;;8.80;99.90;;;;;;4981792;28;20031;-74
2023/03/31 06:37:57;;;;;;;9.07;5.13;;;8.80;99.90;;;;;;4982591;28;20034;-74
2023/03/31 06:40:23;;;;;;;8.82;4.85;;;8.80;99.90;;;;;;4985455;28;20045;-74
2023/03/31 06:42:49;;;;;;;8.55;5.40;;;8.80;99.90;;;;;;4977202;28;20035;-74
2023/03/31 06:45:15;;;;;;;9.57;5.43;;;8.80;99.90;;;;;;4993543;28;20509;-74
2023/03/31 06:47:40;;;;;;;15.57;5.63;;;8.80;99.90;;;;;;4980387;28;20035;-75
2023/03/31 06:50:08;;;;;;;8.15;5.18;;;8.80;99.90;;;;;;4973556;28;20046;-76
2023/03/31 06:52:35;;;;;;;8.68;6.20;;;8.80;99.90;;;;;;4977155;28;20050;-75
2023/03/31 06:55:01;;;;;;;12.75;6.35;;;8.70;99.90;;;;;;4984028;28;20041;-74
2023/03/31 06:57:27;;;;;;;14.27;6.50;;;8.80;99.90;;;;;;4982235;28;20378;-76
2023/03/31 06:59:53;;;;;;;10.32;5.95;;;8.70;99.90;;;;;;4972927;28;20038;-74
2023/03/31 07:02:18;;;;;;;8.85;5.43;;;8.80;99.90;;;;;;4986502;28;20049;-75
2023/03/31 07:04:44;;;;;;;9.75;5.50;;;8.80;99.90;;;;;;4977006;28;20038;-75
2023/03/31 07:07:09;;;;;;;8.65;5.88;;;8.80;99.90;;;;;;4974481;28;20034;-75
2023/03/31 07:09:35;;;;;;;8.70;5.55;;;8.80;99.90;;;;;;4974431;28;20404;-75
2023/03/31 07:12:04;;;;;;;12.00;6.00;;;8.80;99.90;;;;;;4978857;28;20038;-75
2023/03/31 07:14:30;;;;;;;8.77;6.20;;;8.80;99.90;;;;;;4991489;28;20372;-75
2023/03/31 07:16:56;;;;;;;12.85;8.05;;;8.80;99.90;;;;;;4982825;28;20039;-75
2023/03/31 07:19:21;;;;;;;10.77;7.20;;;8.80;99.90;;;;;;4987965;28;20038;-76
2023/03/31 07:21:47;;;;;;;11.48;5.70;;;8.80;99.90;;;;;;4984102;28;20114;-75
2023/03/31 07:24:13;;;;;;;8.63;6.22;;;8.80;99.90;;;;;;4983655;28;20054;-77
2023/03/31 07:26:39;;;;;;;12.45;6.07;;;8.80;99.90;;;;;;4982612;28;20042;-75
2023/03/31 07:29:05;;;;;;;11.90;5.75;;;8.80;99.90;;;;;;4981029;28;20035;-75
2023/03/31 07:31:30;;;;;;;11.00;6.78;;;8.90;99.90;;;;;;4996674;28;20049;-75
2023/03/31 07:33:56;;;;;;;9.70;6.20;;;8.90;99.90;;;;;;4988816;28;20082;-75
2023/03/31 07:36:22;;;;;;;10.10;6.80;;;9.00;99.90;;;;;;4991020;28;20039;-76
2023/03/31 07:38:48;;;;;;;10.75;6.35;;;9.10;99.90;;;;;;4977735;28;20766;-76
2023/03/31 07:41:17;;;;;;;10.82;6.53;;;9.20;99.90;;;;;;4981868;28;20038;-75
2023/03/31 07:43:44;;;;;;;8.80;6.43;;;9.30;99.90;;;;;;4983202;28;20035;-75
2023/03/31 07:46:22;;;;;;;8.00;5.15;;;9.40;99.90;;;;;;4981816;28;20027;-75
2023/03/31 07:48:48;;;;;;;10.90;5.13;;;9.50;99.90;;;;;;4988890;28;20110;-75
2023/03/31 07:51:20;;;;;;;9.32;4.63;;;9.50;99.90;;;;;;4978826;28;20289;-75
2023/03/31 07:53:48;;;;;;;10.98;5.20;;;9.50;99.90;;;;;;4981819;28;20034;-76
2023/03/31 07:56:15;;;;;;;7.47;5.60;;;9.60;99.90;;;;;;4987822;28;20034;-75
2023/03/31 07:58:42;;;;;;;8.07;5.30;;;9.70;99.90;;;;;;4981665;28;20219;-75
2023/03/31 08:01:07;;;;;;;6.32;4.90;;;9.70;99.90;;;;;;4986242;28;20349;-75
2023/03/31 08:03:33;;;;;;;7.60;5.65;;;9.70;99.90;;;;;;4991017;28;20972;-77
2023/03/31 08:05:59;;;;;;;8.90;5.50;;;9.70;99.90;;;;;;4983283;28;20031;-76
2023/03/31 08:08:25;;;;;;;9.25;5.15;;;9.80;99.90;;;;;;4991216;28;20034;-75
2023/03/31 08:10:51;;;;;;;7.85;5.60;;;9.70;99.90;;;;;;4986511;28;20089;-76
2023/03/31 08:13:17;;;;;;;5.60;2.80;;;9.70;99.90;;;;;;4985710;28;20031;-76
2023/03/31 08:15:43;;;;;;;2.90;2.33;;;9.60;99.90;;;;;;4975610;28;20066;-75
2023/03/31 08:18:08;;;;;;;8.23;4.53;;;9.60;99.90;;;;;;4984682;28;20034;-76
2023/03/31 08:20:34;;;;;;;7.82;5.05;;;9.60;99.90;;;;;;4978346;28;20049;-76
2023/03/31 08:23:00;;;;;;;9.10;5.15;;;9.60;99.90;;;;;;5004296;28;20054;-75
2023/03/31 08:25:26;;;;;;;4.40;3.63;;;9.50;99.90;;;;;;4974272;28;20379;-75
2023/03/31 08:27:51;;;;;;;5.00;3.47;;;9.70;99.90;;;;;;4983183;28;20038;-75
2023/03/31 08:30:18;;;;;;;4.18;2.95;;;9.80;99.90;;;;;;4978749;28;20027;-75
2023/03/31 08:32:44;;;;;;;2.53;2.22;;;9.80;99.90;;;;;;4984768;28;20391;-75
2023/03/31 08:35:09;;;;;;;4.10;3.30;;;9.80;99.90;;;;;;4989609;28;20030;-75
2023/03/31 08:37:36;;;;;;;2.63;2.42;;;9.90;99.90;;;;;;4989501;28;20127;-76
2023/03/31 08:40:08;;;;;;;4.72;2.92;;;9.90;99.90;;;;;;4987627;28;20035;-76
2023/03/31 08:42:47;;;;;;;6.93;2.20;;;9.90;99.90;;;;;;4984159;28;20039;-75
2023/03/31 08:45:21;;;;;;;2.47;2.10;;;10.10;99.90;;;;;;4981074;28;20042;-76
2023/03/31 08:47:52;;;;;;;1.95;1.85;;;10.20;99.90;;;;;;4990780;28;20074;-75
2023/03/31 08:50:26;;;;;;;2.80;1.90;;;10.20;99.90;;;;;;4981742;28;20038;-75
2023/03/31 08:53:12;;;;;;;5.38;2.03;;;10.20;99.90;;;;;;4983878;28;20046;-76
2023/03/31 08:55:55;;;;;;;1.73;1.63;;;10.50;99.90;;;;;;4974356;28;20038;-75
2023/03/31 08:58:43;;;;;;;2.10;1.60;;;10.80;99.90;;;;;;4998571;28;20086;-75
2023/03/31 09:01:43;;;;;;;2.50;1.73;;;11.00;99.90;;;;;;4981584;28;20042;-76
2023/03/31 09:04:52;;;;;;;2.78;1.95;;;11.10;99.90;;;;;;4987173;28;20035;-75
2023/03/31 09:07:31;;;;;;;1.70;1.60;;;11.40;99.90;;;;;;4976028;28;20054;-76
2023/03/31 09:10:14;;;;;;;1.75;1.60;;;11.50;99.90;;;;;;4987730;28;20027;-76
2023/03/31 09:12:48;;;;;;;2.78;1.77;;;11.80;99.90;;;;;;4983827;28;20045;-75
2023/03/31 09:15:35;;;;;;;4.45;1.70;;;11.90;99.90;;;;;;4984791;28;20033;-75
2023/03/31 09:18:16;;;;;;;1.70;1.60;;;12.00;99.90;;;;;;4983848;28;20070;-76
2023/03/31 09:20:46;;;;;;;1.60;1.50;;;11.90;99.90;;;;;;4979986;28;20038;-75
2023/03/31 09:23:35;;;;;;;2.60;1.55;;;11.80;99.90;;;;;;4983063;28;20112;-75
2023/03/31 09:26:02;;;;;;;2.25;1.60;;;11.70;99.90;;;;;;4976904;28;20031;-76
2023/03/31 09:28:39;;;;;;;4.40;2.20;;;11.70;99.90;;;;;;4987838;28;20126;-77
2023/03/31 09:31:16;;;;;;;3.65;1.65;;;12.00;99.90;;;;;;4975769;28;20399;-75
2023/03/31 09:33:44;;;;;;;2.97;1.80;;;12.30;99.90;;;;;;4988352;28;20038;-75
2023/03/31 09:36:17;;;;;;;;;;;12.50;99.90;;;;;;4984408;28;20038;-76
2023/03/31 09:38:44;;;;;;;3.20;1.88;;;12.60;99.90;;;;;;4989282;28;19917;-76
2023/03/31 09:41:12;;;;;;;2.93;1.77;;;12.80;99.90;;;;;;4983439;28;20447;-76
2023/03/31 09:43:39;;;;;;;;;;;12.80;99.90;;;;;;4978010;28;20054;-76
2023/03/31 09:46:25;;;;;;;2.65;1.70;;;13.00;99.90;;;;;;4977654;28;19997;-75
2023/03/31 09:49:05;;;;;;;3.45;1.55;;;13.10;99.90;;;;;;4986491;28;20039;-75
2023/03/31 09:51:36;;;;;;;1.88;1.77;;;12.90;99.90;;;;;;4977717;28;20018;-75
2023/03/31 09:54:27;;;;;;;3.47;1.33;;;13.00;99.90;;;;;;4988935;28;20038;-75
2023/03/31 09:56:53;;;;;;;1.60;1.50;;;13.20;99.90;;;;;;4978024;28;20074;-75
2023/03/31 09:59:21;;;;;;;2.65;1.75;;;13.00;99.90;;;;;;4986425;28;20030;-75
2023/03/31 10:01:51;;;;;;;2.88;1.60;;;13.20;99.90;;;;;;4971059;28;20049;-76
2023/03/31 10:04:23;;;;;;;1.80;1.70;;;13.20;99.90;;;;;;4986771;28;20044;-76
2023/03/31 10:06:51;;;;;;;1.67;1.40;;;13.10;99.90;;;;;;4979478;28;20031;-75
2023/03/31 10:09:17;;;;;;;1.52;1.30;;;13.30;99.90;;;;;;4972382;28;20040;-76
2023/03/31 10:12:19;;;;;;;1.98;1.77;;;13.40;99.90;;;;;;4986387;28;20038;-75
2023/03/31 10:14:48;;;;;;;1.73;1.63;;;13.70;99.90;;;;;;4972911;28;20106;-76
2023/03/31 10:17:27;;;;;;;4.72;1.73;;;13.90;99.90;;;;;;4987977;28;20042;-76
2023/03/31 10:20:16;;;;;;;1.90;1.40;;;13.90;99.90;;;;;;5000015;28;20048;-76
2023/03/31 10:22:45;;;;;;;1.70;1.60;;;13.80;99.90;;;;;;4988794;28;20055;-76
2023/03/31 10:25:17;;;;;;;1.10;1.10;;;13.60;99.90;;;;;;4994816;28;20035;-76
2023/03/31 10:27:47;;;;;;;2.85;1.40;;;13.60;99.90;;;;;;4988091;28;20277;-75
2023/03/31 10:30:23;;;;;;;4.45;1.40;;;13.50;99.90;;;;;;5003853;28;20054;-77
2023/03/31 10:32:49;;;;;;;2.42;1.75;;;13.40;99.90;;;;;;4985109;28;20102;-76
2023/03/31 10:35:23;;;;;;;2.58;1.20;;;13.50;99.90;;;;;;4996882;28;20517;-76
2023/03/31 10:37:53;;;;;;;3.05;1.35;;;13.60;99.90;;;;;;4991200;28;20034;-76
2023/03/31 10:40:22;;;;;;;1.63;1.10;;;14.00;99.90;;;;;;4983654;28;20054;-76
2023/03/31 10:43:02;;;;;;;1.08;1.02;;;14.40;99.90;;;;;;4988199;28;20034;-75
2023/03/31 10:45:30;;;;;;;3.63;1.58;;;14.40;99.90;;;;;;4988871;28;20070;-76
2023/03/31 10:47:58;;;;;;;1.80;1.10;;;14.10;99.90;;;;;;4995318;28;20018;-76
2023/03/31 10:50:35;;;;;;;1.00;1.00;;;14.00;99.90;;;;;;4985264;28;20051;-76
2023/03/31 10:53:15;;;;;;;1.08;1.00;;;13.80;99.90;;;;;;4988871;28;20059;-76
2023/03/31 10:55:57;;;;;;;0.95;0.90;;;13.80;99.90;;;;;;4982844;28;20008;-76
2023/03/31 10:58:44;;;;;;;1.50;1.00;;;13.70;99.90;;;;;;4992731;28;20038;-76
2023/03/31 11:01:38;;;;;;;1.13;0.95;;;13.60;99.90;;;;;;4986468;28;20067;-76
2023/03/31 11:04:11;;;;;;;1.08;1.00;;;13.60;99.90;;;;;;4990106;28;20501;-76
2023/03/31 11:07:09;;;;;;;1.85;0.80;;;13.60;99.90;;;;;;4999935;28;20034;-76
2023/03/31 11:10:13;;;;;;;0.90;0.90;;;13.60;99.90;;;;;;4998111;28;20031;-76
2023/03/31 11:12:55;;;;;;;1.27;1.10;;;13.60;99.90;;;;;;4981966;28;20065;-76
2023/03/31 11:15:42;;;;;;;3.70;1.38;;;13.60;99.90;;;;;;4983755;28;20030;-76
2023/03/31 11:18:11;;;;;;;0.83;0.80;;;13.80;99.90;;;;;;4990805;28;20101;-76
2023/03/31 11:20:39;;;;;;;;;;;14.00;99.90;;;;;;4997419;28;20023;-76
2023/03/31 11:23:30;;;;;;;1.55;0.85;;;14.00;99.90;;;;;;4988004;28;19985;-76
2023/03/31 11:26:23;;;;;;;1.15;0.93;;;14.10;99.90;;;;;;4984437;28;20018;-76
2023/03/31 11:28:55;;;;;;;2.03;1.00;;;14.20;99.90;;;;;;4970173;28;20046;-77
2023/03/31 11:31:27;;;;;;;2.70;0.90;;;14.20;99.90;;;;;;4976560;28;20039;-77
2023/03/31 11:34:06;;;;;;;4.03;1.10;;;14.30;99.90;;;;;;4993980;28;20029;-76
2023/03/31 11:36:51;;;;;;;1.58;1.08;;;14.40;99.90;;;;;;4993294;28;20086;-75
2023/03/31 11:39:35;;;;;;;4.22;1.50;;;14.60;99.90;;;;;;5002476;28;20041;-76
2023/03/31 11:42:08;;;;;;;2.15;1.27;;;15.00;99.90;;;;;;4980884;28;20045;-75
2023/03/31 11:44:51;;;;;;;3.45;1.20;;;15.40;99.90;;;;;;4991752;28;20038;-76
2023/03/31 11:47:27;;;;;;;3.25;1.33;;;15.40;99.90;;;;;;4984959;28;20035;-76
2023/03/31 11:50:19;;;;;;;0.80;0.80;;;15.50;99.90;;;;;;4987826;28;20035;-76
2023/03/31 11:52:55;;;;;;;2.17;1.38;;;15.40;95.60;;;;;;4983831;28;20053;-76
2023/03/31 11:55:26;;;;;;;3.72;1.10;;;15.70;99.90;;;;;;4984331;28;20043;-76
2023/03/31 11:58:00;;;;;;;1.55;1.08;;;15.60;99.90;;;;;;4986296;28;20026;-76
2023/03/31 12:00:35;;;;;;;2.33;1.10;;;15.60;99.90;;;;;;4990464;28;20551;-76
2023/03/31 12:03:20;;;;;;;1.50;1.02;;;15.50;99.90;;;;;;4981156;28;20102;-76
2023/03/31 12:06:11;;;;;;;2.25;1.13;;;15.60;97.60;;;;;;4986072;28;20035;-76
2023/03/31 12:08:46;;;;;;;2.95;1.10;;;15.50;99.90;;;;;;4985265;28;20038;-77
2023/03/31 12:11:32;;;;;;;7.30;1.55;;;15.70;99.90;;;;;;4980659;28;20035;-76
2023/03/31 12:14:08;;;;;;;1.25;1.10;;;15.80;99.90;;;;;;4992264;28;20046;-76
2023/03/31 12:16:46;;;;;;;2.35;1.00;;;15.60;97.20;;;;;;4980125;28;20031;-76
2023/03/31 12:19:28;;;;;;;1.58;1.05;;;15.50;94.10;;;;;;4992807;28;20042;-77
2023/03/31 12:22:09;;;;;;;2.10;1.20;;;15.30;95.80;;;;;;4988694;28;20110;-76
2023/03/31 12:24:35;;;;;;;4.60;1.42;;;15.10;97.20;;;;;;4990460;28;20094;-76
2023/03/31 12:27:28;;;;;;;1.17;1.08;;;15.30;98.60;;;;;;4986735;28;20035;-76
2023/03/31 12:29:58;;;;;;;1.13;1.00;;;15.30;97.80;;;;;;4986950;28;20129;-76
2023/03/31 12:32:31;;;;;;;3.08;1.10;;;15.00;98.50;;;;;;4992292;28;20038;-76
2023/03/31 12:35:19;;;;;;;0.80;0.80;;;14.80;97.40;;;;;;4989998;28;20034;-76
2023/03/31 12:38:15;;;;;;;2.30;1.08;;;14.50;97.70;;;;;;4989314;28;20549;-76
2023/03/31 12:40:56;;;;;;;0.98;0.93;;;14.40;99.90;;;;;;4989318;28;20034;-76
2023/03/31 12:43:49;;;;;;;1.23;1.00;;;14.20;99.90;;;;;;4992099;28;20058;-76
2023/03/31 12:46:49;;;;;;;0.95;0.82;;;14.10;99.90;;;;;;4971454;28;20046;-76
2023/03/31 12:49:39;;;;;;;4.80;1.15;;;14.10;99.90;;;;;;4991191;28;20050;-76
2023/03/31 12:52:27;;;;;;;0.93;0.80;;;14.00;99.90;;;;;;4981538;28;20125;-76
2023/03/31 12:55:20;;;;;;;1.25;0.88;;;13.60;99.90;;;;;;4986106;28;20050;-75
2023/03/31 12:57:45;;;;;;;1.23;0.63;;;13.30;99.90;;;;;;4988401;28;20030;-75
2023/03/31 13:00:20;;;;;;;1.27;0.55;;;12.40;99.90;;;;;;4985571;28;20027;-75
2023/03/31 13:02:47;;;;;;;0.80;0.40;;;12.10;99.90;;;;;;4983184;28;20043;-76
2023/03/31 13:05:37;;;;;;;1.50;0.50;;;11.80;99.90;;;;;;4995718;28;20037;-76
2023/03/31 13:08:09;;;;;;;0.20;0.20;;;11.50;99.90;;;;;;4997439;28;20026;-76
2023/03/31 13:10:56;;;;;;;0.55;0.55;;;11.40;99.90;;;;;;4986036;28;20075;-76
2023/03/31 13:13:22;;;;;;;0.68;0.30;;;11.50;99.90;;;;;;4985462;28;20058;-76
2023/03/31 13:15:56;;;;;;;0.35;0.35;;;11.80;99.90;;;;;;4987054;28;20035;-76
2023/03/31 13:18:23;;;;;;;2.40;0.98;;;12.00;99.90;;;;;;4985044;28;20101;-76
2023/03/31 13:21:08;;;;;;;1.05;0.28;;;12.10;99.90;;;;;;4983344;28;20038;-76